Time;durP1;ratioP1;P1;durP2;ratioP2;P2;SDS_P1;SDS_P2;PMS_P1;PMS_P2;Temp;Humidity;BMP_temperature;BMP_pressure;BME280_temperature;BME280_humidity;BME280_pressure;Samples;Min_cycle;Max_cycle;Signal;HPM_P1;HPM_P2
2022/01/15 00:00:03;;;;;;;17.63;9.90;;;;;;;-143.53;100.00;58366.03;2092596;28;20202;-57
2022/01/15 00:01:05;;;;;;;19.33;9.10;;;;;;;-143.53;100.00;58366.03;2092980;28;20200;-57
2022/01/15 00:02:07;;;;;;;17.80;9.38;;;;;;;-143.53;100.00;58366.03;2092402;28;20202;-58
2022/01/15 00:03:10;;;;;;;16.77;9.23;;;;;;;-143.53;100.00;58366.03;2092573;28;20570;-58
2022/01/15 00:04:12;;;;;;;17.75;11.05;;;;;;;-143.53;100.00;58366.03;2091898;28;20203;-57
2022/01/15 00:05:14;;;;;;;19.45;9.45;;;;;;;-143.53;100.00;58366.03;2092711;28;20196;-59
2022/01/15 00:06:15;;;;;;;20.27;10.30;;;;;;;-143.53;100.00;58366.03;2091777;28;20657;-60
2022/01/15 00:07:17;;;;;;;14.60;8.55;;;;;;;-143.53;100.00;58366.03;2092825;28;20196;-59
2022/01/15 00:08:18;;;;;;;15.10;8.40;;;;;;;-143.53;100.00;58366.03;2093014;28;20204;-60
2022/01/15 00:09:20;;;;;;;16.50;8.65;;;;;;;-143.53;100.00;58366.03;2092577;28;20222;-60
2022/01/15 00:10:25;;;;;;;14.60;9.38;;;;;;;-143.53;100.00;58366.03;2092089;28;20337;-60
2022/01/15 00:11:27;;;;;;;15.25;9.45;;;;;;;-143.53;100.00;58366.03;2092371;28;20214;-60
2022/01/15 00:12:35;;;;;;;16.33;9.30;;;;;;;-143.53;100.00;58366.03;2091484;28;20203;-59
2022/01/15 00:13:39;;;;;;;15.98;9.30;;;;;;;-143.53;100.00;58366.03;2092459;28;20199;-60
2022/01/15 00:14:41;;;;;;;23.50;10.00;;;;;;;-143.53;100.00;58366.03;2092568;28;20556;-60
2022/01/15 00:15:49;;;;;;;34.20;11.95;;;;;;;-143.53;100.00;58366.03;2093167;28;20195;-60
2022/01/15 00:18:29;;;;;;;15.98;9.70;;;;;;;-143.53;100.00;58366.03;2068764;28;20212;-60
2022/01/15 00:19:41;;;;;;;17.38;8.60;;;;;;;-143.53;100.00;58366.03;2092495;28;20224;-60
2022/01/15 00:20:43;;;;;;;13.18;8.32;;;;;;;-143.53;100.00;58366.03;2091435;28;20196;-60
2022/01/15 00:21:45;;;;;;;16.95;7.65;;;;;;;-143.53;100.00;58366.03;2092994;28;20287;-60
2022/01/15 00:22:48;;;;;;;13.98;7.57;;;;;;;-143.53;100.00;58366.03;2091777;28;20268;-61
2022/01/15 00:23:49;;;;;;;13.93;8.68;;;;;;;-143.53;100.00;58366.03;2093262;28;20354;-60
2022/01/15 00:24:51;;;;;;;16.30;8.50;;;;;;;-143.53;100.00;58366.03;2092088;28;20587;-58
2022/01/15 00:25:52;;;;;;;20.85;7.63;;;;;;;-143.53;100.00;58366.03;2093070;28;20210;-58
2022/01/15 00:26:54;;;;;;;12.02;7.45;;;;;;;-143.53;100.00;58366.03;2091469;28;20204;-58
2022/01/15 00:27:56;;;;;;;12.73;7.60;;;;;;;-143.53;100.00;58366.03;2093076;28;20198;-58
2022/01/15 00:28:57;;;;;;;16.00;8.35;;;;;;;-143.53;100.00;58366.03;2092160;28;20207;-58
2022/01/15 00:29:59;;;;;;;19.50;9.95;;;;;;;-143.53;100.00;58366.03;2092438;28;20282;-58
2022/01/15 00:31:00;;;;;;;14.38;8.77;;;;;;;-143.53;100.00;58366.03;2092615;28;20208;-58
2022/01/15 00:32:04;;;;;;;20.70;9.95;;;;;;;-143.53;100.00;58366.03;2093038;28;20660;-58
2022/01/15 00:33:05;;;;;;;13.13;8.80;;;;;;;-143.53;100.00;58366.03;2090732;28;20207;-58
2022/01/15 00:34:07;;;;;;;22.02;9.82;;;;;;;-143.53;100.00;58366.03;2091198;28;20282;-58
2022/01/15 00:35:12;;;;;;;18.35;9.23;;;;;;;-143.53;100.00;58366.03;2092429;28;20205;-58
2022/01/15 00:36:15;;;;;;;17.60;8.60;;;;;;;-143.53;100.00;58366.03;2090645;28;20618;-58
2022/01/15 00:37:17;;;;;;;22.55;10.57;;;;;;;-143.53;100.00;58366.03;2092595;28;20237;-58
2022/01/15 00:38:18;;;;;;;19.02;9.10;;;;;;;-143.53;100.00;58366.03;2092906;28;20202;-59
2022/01/15 00:39:21;;;;;;;18.05;9.35;;;;;;;-143.53;100.00;58366.03;2092656;28;20226;-58
2022/01/15 00:40:22;;;;;;;14.88;8.18;;;;;;;-143.53;100.00;58366.03;2093120;28;20195;-59
2022/01/15 00:41:24;;;;;;;18.27;9.98;;;;;;;-143.53;100.00;58366.03;2090885;28;20198;-58
2022/01/15 00:42:27;;;;;;;18.20;9.38;;;;;;;-143.53;100.00;58366.03;2092512;28;20199;-58
2022/01/15 00:43:29;;;;;;;13.85;8.57;;;;;;;-143.53;100.00;58366.03;2091966;28;20207;-58
2022/01/15 00:44:30;;;;;;;26.92;11.23;;;;;;;-143.53;100.00;58366.03;2092116;28;20232;-58
2022/01/15 00:45:33;;;;;;;19.35;9.55;;;;;;;-143.53;100.00;58366.03;2091846;28;20192;-58
2022/01/15 00:46:35;;;;;;;20.73;10.00;;;;;;;-143.53;100.00;58366.03;2093081;28;20192;-58
2022/01/15 00:47:37;;;;;;;19.77;10.18;;;;;;;-143.53;100.00;58366.03;2089376;28;20647;-58
2022/01/15 00:48:39;;;;;;;20.33;10.05;;;;;;;-143.53;100.00;58366.03;2093225;28;20861;-59
2022/01/15 00:49:40;;;;;;;21.33;11.13;;;;;;;-143.53;100.00;58366.03;2093638;28;20246;-58
2022/01/15 00:50:42;;;;;;;19.80;10.25;;;;;;;-143.53;100.00;58366.03;2094237;28;20215;-59
2022/01/15 00:51:43;;;;;;;20.45;10.43;;;;;;;-143.53;100.00;58366.03;2094778;28;20218;-58
2022/01/15 00:52:45;;;;;;;15.55;8.95;;;;;;;-143.53;100.00;58366.03;2094354;28;20221;-61
2022/01/15 00:53:46;;;;;;;14.63;9.57;;;;;;;-143.53;100.00;58366.03;2094046;28;20284;-60
2022/01/15 00:54:48;;;;;;;17.65;9.75;;;;;;;-143.53;100.00;58366.03;2094033;28;20231;-60
2022/01/15 00:55:50;;;;;;;17.88;8.13;;;;;;;-143.53;100.00;58366.03;2092070;28;20205;-61
2022/01/15 00:56:51;;;;;;;17.98;9.30;;;;;;;-143.53;100.00;58366.03;2094081;28;20207;-59
2022/01/15 00:57:53;;;;;;;16.85;9.30;;;;;;;-143.53;100.00;58366.03;2094666;28;20207;-60
2022/01/15 00:58:55;;;;;;;17.80;9.02;;;;;;;-143.53;100.00;58366.03;2093299;28;20375;-58
2022/01/15 00:59:57;;;;;;;18.58;8.93;;;;;;;-143.53;100.00;58366.03;2093679;28;20203;-58
2022/01/15 01:00:58;;;;;;;18.52;10.00;;;;;;;-143.53;100.00;58366.03;2093780;28;20191;-59
2022/01/15 01:02:00;;;;;;;16.35;9.05;;;;;;;-143.53;100.00;58366.03;2094356;28;20249;-59
2022/01/15 01:03:02;;;;;;;23.35;10.70;;;;;;;-143.53;100.00;58366.03;2094378;28;20200;-59
2022/01/15 01:04:04;;;;;;;25.00;10.07;;;;;;;-143.53;100.00;58366.03;2094194;28;20198;-59
2022/01/15 01:05:07;;;;;;;24.35;8.77;;;;;;;-143.53;100.00;58366.03;2093721;28;20215;-59
2022/01/15 01:06:08;;;;;;;17.45;8.93;;;;;;;-143.53;100.00;58366.03;2092817;28;20208;-61
2022/01/15 01:07:10;;;;;;;14.65;8.65;;;;;;;-143.53;100.00;58366.03;2094152;28;20201;-61
2022/01/15 01:08:12;;;;;;;16.40;8.70;;;;;;;-143.53;100.00;58366.03;2093600;28;20238;-61
2022/01/15 01:09:13;;;;;;;14.90;7.60;;;;;;;-143.53;100.00;58366.03;2094212;28;20191;-61
2022/01/15 01:11:55;;;;;;;16.17;8.05;;;;;;;-143.53;100.00;58366.03;2094152;28;20203;-61
2022/01/15 01:22:59;;;;;;;17.92;8.13;;;;;;;-143.53;100.00;58366.03;2094076;28;20207;-61
2022/01/15 01:24:01;;;;;;;16.98;7.65;;;;;;;-143.53;100.00;58366.03;2093943;28;20210;-61
2022/01/15 01:25:04;;;;;;;19.98;8.57;;;;;;;-143.53;100.00;58366.03;2094333;28;20250;-61
2022/01/15 01:26:21;;;;;;;14.10;7.75;;;;;;;-143.53;100.00;58366.03;2093889;28;20209;-61
2022/01/15 01:27:40;;;;;;;13.18;8.13;;;;;;;-143.53;100.00;58366.03;2094659;28;20190;-61
2022/01/15 01:28:45;;;;;;;14.30;7.95;;;;;;;-143.53;100.00;58366.03;2093279;28;20737;-61
2022/01/15 01:30:05;;;;;;;13.20;8.40;;;;;;;-143.53;100.00;58366.03;2093321;28;20699;-61
2022/01/15 01:31:22;;;;;;;17.67;8.10;;;;;;;-143.53;100.00;58366.03;2093585;28;20227;-61
2022/01/15 01:33:38;;;;;;;18.65;8.90;;;;;;;-143.53;100.00;58366.03;2093733;28;20206;-61
2022/01/15 01:34:42;;;;;;;16.80;7.60;;;;;;;-143.53;100.00;58366.03;2092962;28;20235;-61
2022/01/15 01:35:48;;;;;;;15.13;7.95;;;;;;;-143.53;100.00;58366.03;2092694;28;20198;-61
2022/01/15 01:38:05;;;;;;;18.70;6.85;;;;;;;-143.53;100.00;58366.03;2093944;28;20202;-61
2022/01/15 01:39:12;;;;;;;14.65;7.55;;;;;;;-143.53;100.00;58366.03;2093844;28;20197;-61
2022/01/15 01:41:21;;;;;;;14.52;6.88;;;;;;;-143.53;100.00;58366.03;2093400;28;20190;-59
2022/01/15 01:44:25;;;;;;;15.20;7.35;;;;;;;-143.53;100.00;58366.03;2091527;28;20233;-62
2022/01/15 01:45:27;;;;;;;17.55;7.88;;;;;;;-143.53;100.00;58366.03;2093793;28;20646;-62
2022/01/15 01:47:41;;;;;;;14.73;7.85;;;;;;;-143.53;100.00;58366.03;2093354;28;20203;-59
2022/01/15 01:48:44;;;;;;;19.85;8.95;;;;;;;-143.53;100.00;58366.03;2094044;28;20651;-59
2022/01/15 01:49:45;;;;;;;14.27;7.50;;;;;;;-143.53;100.00;58366.03;2092378;28;20229;-59
2022/01/15 01:50:47;;;;;;;13.98;8.40;;;;;;;-143.53;100.00;58366.03;2094005;28;20231;-59
2022/01/15 01:51:48;;;;;;;16.02;8.43;;;;;;;-143.53;100.00;58366.03;2093774;28;20203;-59
2022/01/15 01:52:53;;;;;;;15.10;7.90;;;;;;;-143.53;100.00;58366.03;2092019;28;20196;-62
2022/01/15 01:53:54;;;;;;;17.67;8.23;;;;;;;-143.53;100.00;58366.03;2092506;28;20688;-59
2022/01/15 01:54:56;;;;;;;11.77;7.35;;;;;;;-143.53;100.00;58366.03;2093006;28;20198;-59
2022/01/15 01:55:57;;;;;;;15.13;7.05;;;;;;;-143.53;100.00;58366.03;2093873;28;20206;-59
2022/01/15 01:56:59;;;;;;;18.48;8.00;;;;;;;-143.53;100.00;58366.03;2093944;28;20198;-59
2022/01/15 01:58:00;;;;;;;14.77;7.65;;;;;;;-143.53;100.00;58366.03;2093628;28;20252;-59
2022/01/15 01:59:04;;;;;;;20.20;8.25;;;;;;;-143.53;100.00;58366.03;2093224;28;20206;-59
2022/01/15 02:00:09;;;;;;;12.10;7.30;;;;;;;-143.53;100.00;58366.03;2092772;28;20206;-59
2022/01/15 02:01:11;;;;;;;12.35;7.60;;;;;;;-143.53;100.00;58366.03;2093656;28;20203;-59
2022/01/15 02:02:12;;;;;;;18.17;7.03;;;;;;;-143.53;100.00;58366.03;2093725;28;20290;-59
2022/01/15 02:03:14;;;;;;;15.18;7.32;;;;;;;-143.53;100.00;58366.03;2094071;28;20213;-59
2022/01/15 02:04:16;;;;;;;16.65;7.28;;;;;;;-143.53;100.00;58366.03;2092118;28;20562;-59
2022/01/15 02:05:18;;;;;;;11.35;6.63;;;;;;;-143.53;100.00;58366.03;2094150;28;20205;-59
2022/01/15 02:06:20;;;;;;;14.18;7.60;;;;;;;-143.53;100.00;58366.03;2093961;28;20199;-59
2022/01/15 02:07:21;;;;;;;12.63;7.00;;;;;;;-143.53;100.00;58366.03;2092969;28;20195;-59
2022/01/15 02:08:23;;;;;;;17.52;8.07;;;;;;;-143.53;100.00;58366.03;2092645;28;20202;-59
2022/01/15 02:09:25;;;;;;;13.05;7.05;;;;;;;-143.53;100.00;58366.03;2093281;28;20584;-59
2022/01/15 02:10:27;;;;;;;11.90;7.40;;;;;;;-143.53;100.00;58366.03;2093646;28;20194;-59
2022/01/15 02:11:28;;;;;;;17.92;7.43;;;;;;;-143.53;100.00;58366.03;2092609;28;20233;-59
2022/01/15 02:12:30;;;;;;;12.98;6.45;;;;;;;-143.53;100.00;58366.03;2093743;28;20845;-59
2022/01/15 02:13:33;;;;;;;12.90;7.53;;;;;;;-143.53;100.00;58366.03;2093676;28;20206;-59
2022/01/15 02:14:34;;;;;;;12.57;7.63;;;;;;;-143.53;100.00;58366.03;2092776;28;20276;-59
2022/01/15 02:15:36;;;;;;;16.98;7.30;;;;;;;-143.53;100.00;58366.03;2092911;28;20289;-59
2022/01/15 02:16:38;;;;;;;13.57;6.88;;;;;;;-143.53;100.00;58366.03;2093099;28;20216;-59
2022/01/15 02:17:40;;;;;;;12.60;6.40;;;;;;;-143.53;100.00;58366.03;2093156;28;20207;-59
2022/01/15 02:18:42;;;;;;;13.98;5.00;;;;;;;-143.53;100.00;58366.03;2092926;28;20203;-59
2022/01/15 02:19:58;;;;;;;16.85;5.80;;;;;;;-143.53;100.00;58366.03;2092844;28;20222;-59
2022/01/15 02:23:35;;;;;;;10.23;5.78;;;;;;;-143.53;100.00;58366.03;2093095;28;20194;-62
2022/01/15 02:24:37;;;;;;;9.20;5.88;;;;;;;-143.53;100.00;58366.03;2092505;28;20845;-62
2022/01/15 02:25:43;;;;;;;10.55;5.30;;;;;;;-143.53;100.00;58366.03;2093740;28;20264;-59
2022/01/15 02:26:45;;;;;;;11.63;6.65;;;;;;;-143.53;100.00;58366.03;2093641;28;20674;-59
2022/01/15 02:27:48;;;;;;;15.70;5.43;;;;;;;-143.53;100.00;58366.03;2093044;28;20231;-59
2022/01/15 02:28:57;;;;;;;13.98;6.00;;;;;;;-143.53;100.00;58366.03;2092936;28;20613;-59
2022/01/15 02:30:00;;;;;;;9.43;6.00;;;;;;;-143.53;100.00;58366.03;2093444;28;20561;-59
2022/01/15 02:31:07;;;;;;;9.63;6.53;;;;;;;-143.53;100.00;58366.03;2092027;28;20217;-59
2022/01/15 02:32:09;;;;;;;13.43;7.30;;;;;;;-143.53;100.00;58366.03;2093258;28;20260;-59
2022/01/15 02:33:11;;;;;;;12.18;6.20;;;;;;;-143.53;100.00;58366.03;2093878;28;20690;-59
2022/01/15 02:34:13;;;;;;;15.23;7.40;;;;;;;-143.53;100.00;58366.03;2091985;28;20201;-59
2022/01/15 02:35:14;;;;;;;11.07;6.07;;;;;;;-143.53;100.00;58366.03;2093176;28;20208;-59
2022/01/15 02:36:19;;;;;;;19.70;7.38;;;;;;;-143.53;100.00;58366.03;2093498;28;20202;-59
2022/01/15 02:37:20;;;;;;;14.05;8.05;;;;;;;-143.53;100.00;58366.03;2093637;28;20209;-59
2022/01/15 02:38:23;;;;;;;10.88;5.85;;;;;;;-143.53;100.00;58366.03;2093415;28;20197;-59
2022/01/15 02:39:24;;;;;;;15.30;7.32;;;;;;;-143.53;100.00;58366.03;2092674;28;20239;-59
2022/01/15 02:40:26;;;;;;;11.93;6.35;;;;;;;-143.53;100.00;58366.03;2093244;28;20205;-59
2022/01/15 02:41:30;;;;;;;11.38;6.32;;;;;;;-143.53;100.00;58366.03;2093028;28;20193;-59
2022/01/15 02:42:32;;;;;;;13.38;6.85;;;;;;;-143.53;100.00;58366.03;2093440;28;20210;-59
2022/01/15 02:43:34;;;;;;;16.90;7.72;;;;;;;-143.53;100.00;58366.03;2093758;28;20233;-59
2022/01/15 02:44:38;;;;;;;12.10;6.35;;;;;;;-143.53;100.00;58366.03;2092832;28;20226;-60
2022/01/15 02:45:44;;;;;;;12.80;6.30;;;;;;;-143.53;100.00;58366.03;2093565;28;20824;-61
2022/01/15 02:48:00;;;;;;;18.48;7.30;;;;;;;-143.53;100.00;58366.03;2093348;28;20655;-61
2022/01/15 02:49:05;;;;;;;11.77;6.20;;;;;;;-143.53;100.00;58366.03;2093073;28;20657;-60
2022/01/15 02:50:08;;;;;;;12.45;6.32;;;;;;;-143.53;100.00;58366.03;2091630;28;20202;-60
2022/01/15 02:51:11;;;;;;;13.40;6.95;;;;;;;-143.53;100.00;58366.03;2093417;28;20198;-60
2022/01/15 02:52:12;;;;;;;14.20;7.88;;;;;;;-143.53;100.00;58366.03;2093535;28;20665;-61
2022/01/15 02:53:18;;;;;;;9.45;6.50;;;;;;;-143.53;100.00;58366.03;2093177;28;20190;-60
2022/01/15 02:54:20;;;;;;;13.10;6.30;;;;;;;-143.53;100.00;58366.03;2092578;28;20232;-60
2022/01/15 02:55:21;;;;;;;16.25;7.55;;;;;;;-143.53;100.00;58366.03;2093533;28;20197;-60
2022/01/15 02:56:25;;;;;;;16.90;7.53;;;;;;;-143.53;100.00;58366.03;2092095;28;20194;-61
2022/01/15 02:57:26;;;;;;;14.27;6.45;;;;;;;-143.53;100.00;58366.03;2093456;28;20200;-61
2022/01/15 02:58:28;;;;;;;13.38;7.03;;;;;;;-143.53;100.00;58366.03;2092944;28;20205;-60
2022/01/15 02:59:30;;;;;;;15.57;7.72;;;;;;;-143.53;100.00;58366.03;2092549;28;20224;-60
2022/01/15 03:00:31;;;;;;;14.95;7.80;;;;;;;-143.53;100.00;58366.03;2092270;28;20203;-60
2022/01/15 03:01:33;;;;;;;12.63;6.65;;;;;;;-143.53;100.00;58366.03;2093380;28;20274;-61
2022/01/15 03:02:36;;;;;;;10.10;5.47;;;;;;;-143.53;100.00;58366.03;2093906;28;20198;-62
2022/01/15 03:03:38;;;;;;;12.60;6.07;;;;;;;-143.53;100.00;58366.03;2092762;28;20196;-60
2022/01/15 03:04:39;;;;;;;12.38;6.45;;;;;;;-143.53;100.00;58366.03;2093348;28;20236;-60
2022/01/15 03:05:41;;;;;;;12.27;6.88;;;;;;;-143.53;100.00;58366.03;2092877;28;20197;-60
2022/01/15 03:06:43;;;;;;;14.02;7.47;;;;;;;-143.53;100.00;58366.03;2093131;28;20201;-60
2022/01/15 03:07:44;;;;;;;13.32;7.18;;;;;;;-143.53;100.00;58366.03;2093102;28;20201;-60
2022/01/15 03:08:48;;;;;;;13.40;7.30;;;;;;;-143.53;100.00;58366.03;2092815;28;20198;-60
2022/01/15 03:09:49;;;;;;;16.35;7.30;;;;;;;-143.53;100.00;58366.03;2092359;28;20232;-60
2022/01/15 03:10:51;;;;;;;11.07;7.18;;;;;;;-143.53;100.00;58366.03;2092528;28;20220;-60
2022/01/15 03:11:58;;;;;;;14.68;7.60;;;;;;;-143.53;100.00;58366.03;2092183;28;20282;-60
2022/01/15 03:13:01;;;;;;;18.98;8.02;;;;;;;-143.53;100.00;58366.03;2092405;28;20266;-60
2022/01/15 03:14:03;;;;;;;15.98;7.30;;;;;;;-143.53;100.00;58366.03;2091416;28;20213;-60
2022/01/15 03:15:07;;;;;;;17.08;8.48;;;;;;;-143.53;100.00;58366.03;2092541;28;20214;-60
2022/01/15 03:16:15;;;;;;;22.17;8.68;;;;;;;-143.53;100.00;58366.03;2090887;28;20198;-60
2022/01/15 03:17:16;;;;;;;14.73;7.78;;;;;;;-143.53;100.00;58366.03;2092496;28;20637;-60
2022/01/15 03:18:18;;;;;;;11.50;6.95;;;;;;;-143.53;100.00;58366.03;2091799;28;20544;-60
2022/01/15 03:19:19;;;;;;;17.52;8.20;;;;;;;-143.53;100.00;58366.03;2093232;28;20222;-60
2022/01/15 03:20:21;;;;;;;20.25;7.72;;;;;;;-143.53;100.00;58366.03;2092758;28;20317;-60
2022/01/15 03:21:22;;;;;;;23.05;9.00;;;;;;;-143.53;100.00;58366.03;2092478;28;20201;-60
2022/01/15 03:22:24;;;;;;;13.38;7.28;;;;;;;-143.53;100.00;58366.03;2093229;28;20193;-60
2022/01/15 03:23:26;;;;;;;16.23;8.95;;;;;;;-143.53;100.00;58366.03;2092363;28;20203;-60
2022/01/15 03:24:27;;;;;;;14.50;8.27;;;;;;;-143.53;100.00;58366.03;2091205;28;20220;-60
2022/01/15 03:25:29;;;;;;;20.42;8.35;;;;;;;-143.53;100.00;58366.03;2083732;28;20228;-60
2022/01/15 03:26:30;;;;;;;15.20;8.50;;;;;;;-143.53;100.00;58366.03;2092200;28;20202;-60
2022/01/15 03:27:31;;;;;;;17.00;8.70;;;;;;;-143.53;100.00;58366.03;2093704;28;20712;-60
2022/01/15 03:28:34;;;;;;;19.40;8.65;;;;;;;-143.53;100.00;58366.03;2093523;28;20203;-60
2022/01/15 03:29:35;;;;;;;14.52;8.48;;;;;;;-143.53;100.00;58366.03;2092254;28;20227;-60
2022/01/15 03:30:38;;;;;;;17.30;8.45;;;;;;;-143.53;100.00;58366.03;2093392;28;20279;-60
2022/01/15 03:31:39;;;;;;;16.60;8.95;;;;;;;-143.53;100.00;58366.03;2092699;28;20196;-60
2022/01/15 03:32:44;;;;;;;16.60;8.77;;;;;;;-143.53;100.00;58366.03;2092821;28;20199;-59
2022/01/15 03:33:45;;;;;;;17.33;7.70;;;;;;;-143.53;100.00;58366.03;2092748;28;20197;-60
2022/01/15 03:34:48;;;;;;;17.08;8.48;;;;;;;-143.53;100.00;58366.03;2092486;28;20231;-60
2022/01/15 03:35:50;;;;;;;16.35;8.25;;;;;;;-143.53;100.00;58366.03;2092625;28;20201;-60
2022/01/15 03:36:51;;;;;;;15.10;7.68;;;;;;;-143.53;100.00;58366.03;2089870;28;20203;-60
2022/01/15 03:37:53;;;;;;;16.73;8.77;;;;;;;-143.53;100.00;58366.03;2092564;28;20200;-60
2022/01/15 03:38:54;;;;;;;22.70;8.00;;;;;;;-143.53;100.00;58366.03;2092721;28;20200;-60
2022/01/15 03:39:55;;;;;;;18.45;8.50;;;;;;;-143.53;100.00;58366.03;2093757;28;20196;-60
2022/01/15 03:40:57;;;;;;;15.95;8.30;;;;;;;-143.53;100.00;58366.03;2093470;28;20977;-60
2022/01/15 03:41:58;;;;;;;14.25;7.60;;;;;;;-143.53;100.00;58366.03;2092092;28;20197;-60
2022/01/15 03:43:00;;;;;;;13.02;7.05;;;;;;;-143.53;100.00;58366.03;2092899;28;20196;-60
2022/01/15 03:44:02;;;;;;;14.27;6.95;;;;;;;-143.53;100.00;58366.03;2091882;28;20244;-60
2022/01/15 03:45:05;;;;;;;17.40;8.38;;;;;;;-143.53;100.00;58366.03;2092721;28;20815;-60
2022/01/15 03:46:06;;;;;;;15.43;7.47;;;;;;;-143.53;100.00;58366.03;2092663;28;20193;-60
2022/01/15 03:47:09;;;;;;;13.82;7.32;;;;;;;-143.53;100.00;58366.03;2093266;28;20743;-59
2022/01/15 03:48:11;;;;;;;19.27;8.30;;;;;;;-143.53;100.00;58366.03;2094509;28;20193;-60
2022/01/15 03:49:12;;;;;;;15.30;6.75;;;;;;;-143.53;100.00;58366.03;2093038;28;20201;-60
2022/01/15 03:50:15;;;;;;;20.52;8.10;;;;;;;-143.53;100.00;58366.03;2093691;28;20192;-60
2022/01/15 03:51:19;;;;;;;17.17;7.40;;;;;;;-143.53;100.00;58366.03;2091501;28;20193;-60
2022/01/15 03:52:20;;;;;;;27.45;8.00;;;;;;;-143.53;100.00;58366.03;2093114;28;20214;-60
2022/01/15 03:53:23;;;;;;;13.85;7.35;;;;;;;-143.53;100.00;58366.03;2093053;28;20628;-60
2022/01/15 03:54:24;;;;;;;15.27;8.02;;;;;;;-143.53;100.00;58366.03;2090838;28;20307;-60
2022/01/15 03:55:26;;;;;;;15.38;7.75;;;;;;;-143.53;100.00;58366.03;2092946;28;20201;-60
2022/01/15 03:56:27;;;;;;;12.82;7.13;;;;;;;-143.53;100.00;58366.03;2095580;28;20212;-60
2022/01/15 03:57:29;;;;;;;13.65;7.18;;;;;;;-143.53;100.00;58366.03;2092428;28;20198;-60
2022/01/15 03:58:30;;;;;;;12.93;7.15;;;;;;;-143.53;100.00;58366.03;2093297;28;20197;-60
2022/01/15 03:59:32;;;;;;;16.60;7.15;;;;;;;-143.53;100.00;58366.03;2092479;28;20220;-60
2022/01/15 04:00:34;;;;;;;12.55;6.70;;;;;;;-143.53;100.00;58366.03;2093370;28;20203;-60
2022/01/15 04:01:36;;;;;;;13.63;7.18;;;;;;;-143.53;100.00;58366.03;2092866;28;20212;-60
2022/01/15 04:02:38;;;;;;;13.18;7.68;;;;;;;-143.53;100.00;58366.03;2092372;28;20285;-60
2022/01/15 04:03:40;;;;;;;14.43;6.93;;;;;;;-143.53;100.00;58366.03;2092812;28;20197;-60
2022/01/15 04:04:42;;;;;;;15.90;8.35;;;;;;;-143.53;100.00;58366.03;2092629;28;20224;-61
2022/01/15 04:05:43;;;;;;;20.25;8.30;;;;;;;-143.53;100.00;58366.03;2092501;28;20204;-60
2022/01/15 04:06:45;;;;;;;16.33;8.45;;;;;;;-143.53;100.00;58366.03;2092677;28;20209;-60
2022/01/15 04:07:48;;;;;;;12.63;6.20;;;;;;;-143.53;100.00;58366.03;2092485;28;20581;-60
2022/01/15 04:08:49;;;;;;;14.25;7.43;;;;;;;-143.53;100.00;58366.03;2092273;28;20210;-60
2022/01/15 04:09:51;;;;;;;13.35;7.07;;;;;;;-143.53;100.00;58366.03;2091671;28;20221;-60
2022/01/15 04:10:52;;;;;;;12.55;7.57;;;;;;;-143.53;100.00;58366.03;2092464;28;20260;-60
2022/01/15 04:11:54;;;;;;;15.40;7.93;;;;;;;-143.53;100.00;58366.03;2092461;28;20208;-60
2022/01/15 04:12:55;;;;;;;13.40;7.20;;;;;;;-143.53;100.00;58366.03;2092679;28;20196;-60
2022/01/15 04:13:57;;;;;;;17.58;7.68;;;;;;;-143.53;100.00;58366.03;2091731;28;20291;-60
2022/01/15 04:14:58;;;;;;;16.88;8.10;;;;;;;-143.53;100.00;58366.03;2092248;28;20209;-60
2022/01/15 04:16:00;;;;;;;12.85;7.43;;;;;;;-143.53;100.00;58366.03;2092763;28;20211;-60
2022/01/15 04:17:02;;;;;;;12.88;6.95;;;;;;;-143.53;100.00;58366.03;2092913;28;20871;-60
2022/01/15 04:18:04;;;;;;;11.73;6.45;;;;;;;-143.53;100.00;58366.03;2092646;28;20581;-61
2022/01/15 04:19:07;;;;;;;14.95;6.85;;;;;;;-143.53;100.00;58366.03;2092883;28;20592;-60
2022/01/15 04:20:09;;;;;;;11.52;6.07;;;;;;;-143.53;100.00;58366.03;2092597;28;20201;-60
2022/01/15 04:21:11;;;;;;;15.60;6.63;;;;;;;-143.53;100.00;58366.03;2093047;28;20197;-60
2022/01/15 04:22:12;;;;;;;15.25;6.90;;;;;;;-143.53;100.00;58366.03;2093192;28;20193;-60
2022/01/15 04:23:14;;;;;;;13.07;7.68;;;;;;;-143.53;100.00;58366.03;2092773;28;20210;-60
2022/01/15 04:24:17;;;;;;;12.52;6.93;;;;;;;-143.53;100.00;58366.03;2094246;28;20221;-60
2022/01/15 04:25:19;;;;;;;12.63;6.93;;;;;;;-143.53;100.00;58366.03;2094087;28;20190;-60
2022/01/15 04:26:25;;;;;;;12.77;6.55;;;;;;;-143.53;100.00;58366.03;2093915;28;20212;-60
2022/01/15 04:27:26;;;;;;;10.80;6.43;;;;;;;-143.53;100.00;58366.03;2093702;28;20197;-60
2022/01/15 04:28:29;;;;;;;11.23;6.30;;;;;;;-143.53;100.00;58366.03;2093742;28;20200;-60
2022/01/15 04:29:33;;;;;;;14.40;6.70;;;;;;;-143.53;100.00;58366.03;2093991;28;20578;-60
2022/01/15 04:30:35;;;;;;;14.65;7.57;;;;;;;-143.53;100.00;58366.03;2093234;28;20209;-60
2022/01/15 04:31:49;;;;;;;11.25;6.20;;;;;;;-143.53;100.00;58366.03;2093785;28;20194;-61
2022/01/15 04:32:50;;;;;;;16.50;6.70;;;;;;;-143.53;100.00;58366.03;2094099;28;20560;-61
2022/01/15 04:33:52;;;;;;;13.32;6.53;;;;;;;-143.53;100.00;58366.03;2094736;28;20796;-60
2022/01/15 04:34:53;;;;;;;14.07;7.20;;;;;;;-143.53;100.00;58366.03;2094080;28;20235;-60
2022/01/15 04:35:55;;;;;;;10.20;6.45;;;;;;;-143.53;100.00;58366.03;2094818;28;20649;-60
2022/01/15 04:37:12;;;;;;;18.17;7.78;;;;;;;-143.53;100.00;58366.03;2094437;28;20214;-60
2022/01/15 04:38:14;;;;;;;17.13;6.80;;;;;;;-143.53;100.00;58366.03;2094355;28;20196;-60
2022/01/15 04:39:16;;;;;;;13.77;7.22;;;;;;;-143.53;100.00;58366.03;2093892;28;20220;-60
2022/01/15 04:40:17;;;;;;;12.50;6.70;;;;;;;-143.53;100.00;58366.03;2093067;28;20203;-60
2022/01/15 04:41:19;;;;;;;13.85;7.25;;;;;;;-143.53;100.00;58366.03;2094596;28;20201;-60
2022/01/15 04:42:24;;;;;;;10.90;6.15;;;;;;;-143.53;100.00;58366.03;2094296;28;20197;-60
2022/01/15 04:43:26;;;;;;;10.93;5.75;;;;;;;-143.53;100.00;58366.03;2094050;28;20196;-60
2022/01/15 04:44:28;;;;;;;13.02;7.15;;;;;;;-143.53;100.00;58366.03;2093638;28;20659;-60
2022/01/15 04:45:29;;;;;;;13.07;6.97;;;;;;;-143.53;100.00;58366.03;2094110;28;20209;-60
2022/01/15 04:46:32;;;;;;;10.55;5.55;;;;;;;-143.53;100.00;58366.03;2094374;28;20200;-60
2022/01/15 04:47:38;;;;;;;11.73;6.82;;;;;;;-143.53;100.00;58366.03;2093390;28;20242;-60
2022/01/15 04:48:40;;;;;;;10.65;6.22;;;;;;;-143.53;100.00;58366.03;2093475;28;20196;-60
2022/01/15 04:49:41;;;;;;;16.55;6.93;;;;;;;-143.53;100.00;58366.03;2092687;28;20239;-60
2022/01/15 04:50:43;;;;;;;11.68;7.32;;;;;;;-143.53;100.00;58366.03;2093847;28;20224;-60
2022/01/15 04:51:44;;;;;;;16.13;6.60;;;;;;;-143.53;100.00;58366.03;2093722;28;20588;-60
2022/01/15 04:52:46;;;;;;;16.65;6.82;;;;;;;-143.53;100.00;58366.03;2093642;28;20667;-60
2022/01/15 04:53:48;;;;;;;19.25;8.02;;;;;;;-143.53;100.00;58366.03;2093905;28;20203;-60
2022/01/15 04:54:49;;;;;;;11.75;6.65;;;;;;;-143.53;100.00;58366.03;2093019;28;20220;-60
2022/01/15 04:55:51;;;;;;;12.80;7.10;;;;;;;-143.53;100.00;58366.03;2093797;28;20197;-60
2022/01/15 04:56:53;;;;;;;16.98;8.40;;;;;;;-143.53;100.00;58366.03;2093366;28;20213;-60
2022/01/15 04:57:54;;;;;;;13.70;7.00;;;;;;;-143.53;100.00;58366.03;2108824;28;20196;-60
2022/01/15 04:58:56;;;;;;;15.15;7.07;;;;;;;-143.53;100.00;58366.03;2109496;28;20200;-60
2022/01/15 04:59:58;;;;;;;12.38;6.80;;;;;;;-143.53;100.00;58366.03;2094051;28;20198;-60
2022/01/15 05:00:59;;;;;;;9.30;5.95;;;;;;;-143.53;100.00;58366.03;2093425;28;20208;-60
2022/01/15 05:02:01;;;;;;;11.95;7.35;;;;;;;-143.53;100.00;58366.03;2093175;28;20279;-60
2022/01/15 05:03:03;;;;;;;13.68;6.65;;;;;;;-143.53;100.00;58366.03;2093511;28;20627;-61
2022/01/15 05:04:05;;;;;;;12.85;6.53;;;;;;;-143.53;100.00;58366.03;2093498;28;20201;-60
2022/01/15 05:05:08;;;;;;;10.10;7.18;;;;;;;-143.53;100.00;58366.03;2094299;28;20205;-60